sensor_id;sensor_type;location;lat;lon;timestamp;pressure;altitude;pressure_sealevel;temperature;humidity
13348;BME280;6743;49.934;9.138;2023-05-01T00:00:54;100540.97;;;12.36;100.00
13348;BME280;6743;49.934;9.138;2023-05-01T00:03:20;100541.47;;;12.32;100.00
13348;BME280;6743;49.934;9.138;2023-05-01T00:05:46;100538.47;;;12.27;100.00
13348;BME280;6743;49.934;9.138;2023-05-01T00:08:13;100535.50;;;12.21;100.00
13348;BME280;6743;49.934;9.138;2023-05-01T00:10:40;100531.34;;;12.19;100.00
13348;BME280;6743;49.934;9.138;2023-05-01T00:13:06;100535.00;;;12.18;100.00
13348;BME280;6743;49.934;9.138;2023-05-01T00:15:34;100531.03;;;12.14;100.00
13348;BME280;6743;49.934;9.138;2023-05-01T00:18:00;100520.91;;;12.09;100.00
13348;BME280;6743;49.934;9.138;2023-05-01T00:20:26;100521.06;;;12.08;100.00
13348;BME280;6743;49.934;9.138;2023-05-01T00:22:53;100523.06;;;12.06;100.00
13348;BME280;6743;49.934;9.138;2023-05-01T00:25:19;100520.75;;;12.03;100.00
13348;BME280;6743;49.934;9.138;2023-05-01T00:27:45;100512.41;;;11.98;100.00
13348;BME280;6743;49.934;9.138;2023-05-01T00:30:12;100516.59;;;12.00;100.00
13348;BME280;6743;49.934;9.138;2023-05-01T00:32:39;100515.06;;;11.98;100.00
13348;BME280;6743;49.934;9.138;2023-05-01T00:35:05;100516.25;;;11.95;100.00
13348;BME280;6743;49.934;9.138;2023-05-01T00:37:31;100509.44;;;11.93;100.00
13348;BME280;6743;49.934;9.138;2023-05-01T00:39:57;100515.75;;;11.92;100.00
13348;BME280;6743;49.934;9.138;2023-05-01T00:42:24;100512.25;;;11.83;100.00
13348;BME280;6743;49.934;9.138;2023-05-01T00:44:50;100508.97;;;11.81;100.00
13348;BME280;6743;49.934;9.138;2023-05-01T00:47:16;100502.13;;;11.78;100.00
13348;BME280;6743;49.934;9.138;2023-05-01T00:49:42;100496.97;;;11.77;100.00
13348;BME280;6743;49.934;9.138;2023-05-01T00:52:09;100509.44;;;11.68;100.00
13348;BME280;6743;49.934;9.138;2023-05-01T00:54:36;100497.28;;;11.66;100.00
13348;BME280;6743;49.934;9.138;2023-05-01T00:57:02;100492.47;;;11.61;100.00
13348;BME280;6743;49.934;9.138;2023-05-01T00:59:28;100485.31;;;11.62;100.00
13348;BME280;6743;49.934;9.138;2023-05-01T01:01:55;100486.16;;;11.62;100.00
13348;BME280;6743;49.934;9.138;2023-05-01T01:04:21;100476.19;;;11.64;100.00
13348;BME280;6743;49.934;9.138;2023-05-01T01:06:51;100481.66;;;11.63;100.00
13348;BME280;6743;49.934;9.138;2023-05-01T01:09:29;100478.38;;;11.61;100.00
13348;BME280;6743;49.934;9.138;2023-05-01T01:12:04;100472.69;;;11.56;100.00
13348;BME280;6743;49.934;9.138;2023-05-01T01:14:34;100472.22;;;11.52;100.00
13348;BME280;6743;49.934;9.138;2023-05-01T01:17:08;100466.06;;;11.43;100.00
13348;BME280;6743;49.934;9.138;2023-05-01T01:22:37;100459.59;;;11.38;100.00
13348;BME280;6743;49.934;9.138;2023-05-01T01:25:37;100454.28;;;11.38;100.00
13348;BME280;6743;49.934;9.138;2023-05-01T01:28:23;100459.06;;;11.42;100.00
13348;BME280;6743;49.934;9.138;2023-05-01T01:31:09;100450.47;;;11.40;100.00
13348;BME280;6743;49.934;9.138;2023-05-01T01:34:12;100446.78;;;11.41;100.00
13348;BME280;6743;49.934;9.138;2023-05-01T01:36:44;100449.12;;;11.44;100.00
13348;BME280;6743;49.934;9.138;2023-05-01T01:39:23;100440.16;;;11.45;100.00
13348;BME280;6743;49.934;9.138;2023-05-01T01:41:52;100433.84;;;11.38;100.00
13348;BME280;6743;49.934;9.138;2023-05-01T01:44:24;100446.63;;;11.43;100.00
13348;BME280;6743;49.934;9.138;2023-05-01T01:46:53;100445.16;;;11.40;100.00
13348;BME280;6743;49.934;9.138;2023-05-01T01:49:23;100435.84;;;11.36;100.00
13348;BME280;6743;49.934;9.138;2023-05-01T01:51:51;100426.03;;;11.29;100.00
13348;BME280;6743;49.934;9.138;2023-05-01T01:54:22;100431.50;;;11.35;100.00
13348;BME280;6743;49.934;9.138;2023-05-01T01:56:51;100428.22;;;11.33;100.00
13348;BME280;6743;49.934;9.138;2023-05-01T01:59:20;100430.69;;;11.35;100.00
13348;BME280;6743;49.934;9.138;2023-05-01T02:01:49;100427.88;;;11.36;100.00
13348;BME280;6743;49.934;9.138;2023-05-01T02:04:15;100426.19;;;11.35;100.00
13348;BME280;6743;49.934;9.138;2023-05-01T02:06:44;100430.19;;;11.31;100.00
13348;BME280;6743;49.934;9.138;2023-05-01T02:09:11;100417.22;;;11.28;100.00
13348;BME280;6743;49.934;9.138;2023-05-01T02:11:38;100418.06;;;11.21;100.00
13348;BME280;6743;49.934;9.138;2023-05-01T02:14:05;100420.06;;;11.19;100.00
13348;BME280;6743;49.934;9.138;2023-05-01T02:16:32;100415.91;;;11.16;100.00
13348;BME280;6743;49.934;9.138;2023-05-01T02:18:59;100418.06;;;11.21;100.00
13348;BME280;6743;49.934;9.138;2023-05-01T02:21:26;100417.41;;;11.19;100.00
13348;BME280;6743;49.934;9.138;2023-05-01T02:23:58;100415.91;;;11.16;100.00
13348;BME280;6743;49.934;9.138;2023-05-01T02:26:25;100418.06;;;11.13;100.00
13348;BME280;6743;49.934;9.138;2023-05-01T02:28:53;100414.91;;;11.09;100.00
13348;BME280;6743;49.934;9.138;2023-05-01T02:31:20;100417.91;;;11.06;100.00
13348;BME280;6743;49.934;9.138;2023-05-01T02:33:47;100414.41;;;11.05;100.00
13348;BME280;6743;49.934;9.138;2023-05-01T02:36:13;100413.56;;;11.05;100.00
13348;BME280;6743;49.934;9.138;2023-05-01T02:38:40;100411.06;;;11.03;100.00
13348;BME280;6743;49.934;9.138;2023-05-01T02:41:08;100402.78;;;10.98;100.00
13348;BME280;6743;49.934;9.138;2023-05-01T02:43:36;100403.63;;;10.99;100.00
13348;BME280;6743;49.934;9.138;2023-05-01T02:46:04;100405.75;;;10.95;100.00
13348;BME280;6743;49.934;9.138;2023-05-01T02:48:32;100408.56;;;10.94;100.00
13348;BME280;6743;49.934;9.138;2023-05-01T02:50:59;100406.41;;;10.89;100.00
13348;BME280;6743;49.934;9.138;2023-05-01T02:53:25;100401.94;;;10.90;100.00
13348;BME280;6743;49.934;9.138;2023-05-01T02:55:52;100400.09;;;10.90;100.00
13348;BME280;6743;49.934;9.138;2023-05-01T02:58:19;100397.47;;;10.90;100.00
13348;BME280;6743;49.934;9.138;2023-05-01T03:00:47;100392.00;;;10.92;100.00
13348;BME280;6743;49.934;9.138;2023-05-01T03:03:13;100393.13;;;10.89;100.00
13348;BME280;6743;49.934;9.138;2023-05-01T03:05:40;100393.44;;;10.86;100.00
13348;BME280;6743;49.934;9.138;2023-05-01T03:08:06;100383.19;;;10.83;100.00
13348;BME280;6743;49.934;9.138;2023-05-01T03:10:32;100390.31;;;10.83;100.00
13348;BME280;6743;49.934;9.138;2023-05-01T03:12:58;100387.97;;;10.80;100.00
13348;BME280;6743;49.934;9.138;2023-05-01T03:15:25;100406.53;;;10.80;100.00
13348;BME280;6743;49.934;9.138;2023-05-01T03:17:51;100398.94;;;10.77;100.00
13348;BME280;6743;49.934;9.138;2023-05-01T03:20:17;100402.56;;;10.76;100.00
13348;BME280;6743;49.934;9.138;2023-05-01T03:22:43;100396.09;;;10.70;100.00
13348;BME280;6743;49.934;9.138;2023-05-01T03:25:09;100401.56;;;10.69;100.00
13348;BME280;6743;49.934;9.138;2023-05-01T03:27:35;100396.41;;;10.67;100.00
13348;BME280;6743;49.934;9.138;2023-05-01T03:30:01;100394.44;;;10.69;100.00
13348;BME280;6743;49.934;9.138;2023-05-01T03:32:29;100390.78;;;10.70;100.00
13348;BME280;6743;49.934;9.138;2023-05-01T03:34:55;100394.56;;;10.68;100.00
13348;BME280;6743;49.934;9.138;2023-05-01T03:37:21;100394.09;;;10.64;100.00
13348;BME280;6743;49.934;9.138;2023-05-01T03:39:47;100391.25;;;10.57;100.00
13348;BME280;6743;49.934;9.138;2023-05-01T03:42:13;100390.41;;;10.57;100.00
13348;BME280;6743;49.934;9.138;2023-05-01T03:44:39;100384.25;;;10.48;100.00
13348;BME280;6743;49.934;9.138;2023-05-01T03:47:05;100396.97;;;10.45;100.00
13348;BME280;6743;49.934;9.138;2023-05-01T03:49:31;100390.50;;;10.39;100.00
13348;BME280;6743;49.934;9.138;2023-05-01T03:51:57;100382.22;;;10.34;100.00
13348;BME280;6743;49.934;9.138;2023-05-01T03:54:23;100383.72;;;10.37;100.00
13348;BME280;6743;49.934;9.138;2023-05-01T03:56:50;100376.59;;;10.37;100.00
13348;BME280;6743;49.934;9.138;2023-05-01T03:59:16;100382.87;;;10.36;100.00
13348;BME280;6743;49.934;9.138;2023-05-01T04:01:42;100377.59;;;10.36;100.00
13348;BME280;6743;49.934;9.138;2023-05-01T04:04:08;100378.56;;;10.35;100.00
13348;BME280;6743;49.934;9.138;2023-05-01T04:06:35;100378.41;;;10.37;100.00
13348;BME280;6743;49.934;9.138;2023-05-01T04:09:01;100387.84;;;10.39;100.00
13348;BME280;6743;49.934;9.138;2023-05-01T04:11:28;100383.22;;;10.41;100.00
13348;BME280;6743;49.934;9.138;2023-05-01T04:13:54;100385.87;;;10.41;100.00
13348;BME280;6743;49.934;9.138;2023-05-01T04:16:20;100384.06;;;10.42;100.00
13348;BME280;6743;49.934;9.138;2023-05-01T04:18:46;100385.38;;;10.46;100.00
13348;BME280;6743;49.934;9.138;2023-05-01T04:21:12;100383.25;;;10.49;100.00
13348;BME280;6743;49.934;9.138;2023-05-01T04:23:39;100386.09;;;10.56;100.00
13348;BME280;6743;49.934;9.138;2023-05-01T04:26:05;100383.63;;;10.62;100.00
13348;BME280;6743;49.934;9.138;2023-05-01T04:28:32;100384.66;;;10.70;100.00
13348;BME280;6743;49.934;9.138;2023-05-01T04:30:58;100378.69;;;10.76;100.00
13348;BME280;6743;49.934;9.138;2023-05-01T04:33:24;100372.87;;;10.80;100.00
13348;BME280;6743;49.934;9.138;2023-05-01T04:35:50;100375.91;;;10.85;100.00
13348;BME280;6743;49.934;9.138;2023-05-01T04:38:16;100379.87;;;10.89;100.00
13348;BME280;6743;49.934;9.138;2023-05-01T04:40:42;100380.34;;;10.93;100.00
13348;BME280;6743;49.934;9.138;2023-05-01T04:43:08;100381.03;;;10.95;100.00
13348;BME280;6743;49.934;9.138;2023-05-01T04:45:34;100376.56;;;10.95;100.00
13348;BME280;6743;49.934;9.138;2023-05-01T04:48:00;100366.63;;;10.97;100.00
13348;BME280;6743;49.934;9.138;2023-05-01T04:50:26;100373.91;;;10.95;100.00
13348;BME280;6743;49.934;9.138;2023-05-01T04:52:53;100372.06;;;10.96;100.00
13348;BME280;6743;49.934;9.138;2023-05-01T04:55:19;100366.63;;;10.97;100.00
13348;BME280;6743;49.934;9.138;2023-05-01T04:57:45;100379.06;;;10.97;100.00
13348;BME280;6743;49.934;9.138;2023-05-01T05:00:12;100372.06;;;10.96;100.00
13348;BME280;6743;49.934;9.138;2023-05-01T05:02:38;100369.25;;;10.97;100.00
13348;BME280;6743;49.934;9.138;2023-05-01T05:05:04;100371.56;;;11.00;100.00
13348;BME280;6743;49.934;9.138;2023-05-01T05:07:31;100376.72;;;11.02;100.00
13348;BME280;6743;49.934;9.138;2023-05-01T05:09:56;100365.78;;;11.05;100.00
13348;BME280;6743;49.934;9.138;2023-05-01T05:12:22;100381.06;;;11.11;100.00
13348;BME280;6743;49.934;9.138;2023-05-01T05:14:49;100365.28;;;11.10;100.00
13348;BME280;6743;49.934;9.138;2023-05-01T05:17:15;100365.28;;;11.18;100.00
13348;BME280;6743;49.934;9.138;2023-05-01T05:19:41;100371.09;;;11.21;100.00
13348;BME280;6743;49.934;9.138;2023-05-01T05:22:07;100367.59;;;11.21;100.00
13348;BME280;6743;49.934;9.138;2023-05-01T05:24:33;100368.59;;;11.28;100.00
13348;BME280;6743;49.934;9.138;2023-05-01T05:26:59;100369.44;;;11.28;100.00
13348;BME280;6743;49.934;9.138;2023-05-01T05:29:25;100368.59;;;11.28;100.00
13348;BME280;6743;49.934;9.138;2023-05-01T05:31:52;100370.09;;;11.30;100.00
13348;BME280;6743;49.934;9.138;2023-05-01T05:34:18;100374.91;;;11.35;100.00
13348;BME280;6743;49.934;9.138;2023-05-01T05:36:44;100375.56;;;11.37;100.00
13348;BME280;6743;49.934;9.138;2023-05-01T05:39:10;100369.09;;;11.39;100.00
13348;BME280;6743;49.934;9.138;2023-05-01T05:41:37;100368.12;;;11.40;100.00
13348;BME280;6743;49.934;9.138;2023-05-01T05:44:03;100363.44;;;11.42;100.00
13348;BME280;6743;49.934;9.138;2023-05-01T05:46:29;100360.62;;;11.44;100.00
13348;BME280;6743;49.934;9.138;2023-05-01T05:48:56;100364.78;;;11.47;100.00
13348;BME280;6743;49.934;9.138;2023-05-01T05:51:22;100352.34;;;11.47;100.00
13348;BME280;6743;49.934;9.138;2023-05-01T05:53:48;100358.97;;;11.51;100.00
13348;BME280;6743;49.934;9.138;2023-05-01T05:56:14;100361.44;;;11.53;100.00
13348;BME280;6743;49.934;9.138;2023-05-01T05:58:40;100352.50;;;11.54;100.00
13348;BME280;6743;49.934;9.138;2023-05-01T06:01:06;100347.81;;;11.56;100.00
13348;BME280;6743;49.934;9.138;2023-05-01T06:03:33;100350.16;;;11.59;100.00
13348;BME280;6743;49.934;9.138;2023-05-01T06:06:01;100348.16;;;11.61;100.00
13348;BME280;6743;49.934;9.138;2023-05-01T06:08:27;100347.81;;;11.64;100.00
13348;BME280;6743;49.934;9.138;2023-05-01T06:10:53;100340.66;;;11.64;100.00
13348;BME280;6743;49.934;9.138;2023-05-01T06:13:19;100348.31;;;11.67;100.00
13348;BME280;6743;49.934;9.138;2023-05-01T06:15:45;100345.28;;;11.70;100.00
13348;BME280;6743;49.934;9.138;2023-05-01T06:18:11;100358.25;;;11.73;100.00
13348;BME280;6743;49.934;9.138;2023-05-01T06:20:37;100352.63;;;11.76;100.00
13348;BME280;6743;49.934;9.138;2023-05-01T06:23:04;100347.81;;;11.80;100.00
13348;BME280;6743;49.934;9.138;2023-05-01T06:25:30;100349.13;;;11.84;100.00
13348;BME280;6743;49.934;9.138;2023-05-01T06:27:56;100347.28;;;11.84;100.00
13348;BME280;6743;49.934;9.138;2023-05-01T06:30:22;100345.28;;;11.87;100.00
13348;BME280;6743;49.934;9.138;2023-05-01T06:32:48;100340.81;;;11.87;100.00
13348;BME280;6743;49.934;9.138;2023-05-01T06:35:14;100340.44;;;11.90;100.00
13348;BME280;6743;49.934;9.138;2023-05-01T06:37:40;100341.13;;;11.92;100.00
13348;BME280;6743;49.934;9.138;2023-05-01T06:40:08;100337.31;;;11.95;100.00
13348;BME280;6743;49.934;9.138;2023-05-01T06:42:34;100336.94;;;11.98;100.00
13348;BME280;6743;49.934;9.138;2023-05-01T06:45:00;100342.75;;;12.01;100.00
13348;BME280;6743;49.934;9.138;2023-05-01T06:47:26;100343.22;;;12.05;100.00
13348;BME280;6743;49.934;9.138;2023-05-01T06:49:52;100338.41;;;12.08;100.00
13348;BME280;6743;49.934;9.138;2023-05-01T06:52:18;100338.03;;;12.11;100.00
13348;BME280;6743;49.934;9.138;2023-05-01T06:54:44;100334.88;;;12.16;100.00
13348;BME280;6743;49.934;9.138;2023-05-01T06:57:11;100335.34;;;12.19;100.00
13348;BME280;6743;49.934;9.138;2023-05-01T06:59:37;100333.66;;;12.27;100.00
13348;BME280;6743;49.934;9.138;2023-05-01T07:02:03;100336.47;;;12.33;100.00
13348;BME280;6743;49.934;9.138;2023-05-01T07:04:30;100335.75;;;12.39;100.00
13348;BME280;6743;49.934;9.138;2023-05-01T07:06:56;100328.72;;;12.46;100.00
13348;BME280;6743;49.934;9.138;2023-05-01T07:09:22;100323.38;;;12.54;100.00
13348;BME280;6743;49.934;9.138;2023-05-01T07:11:48;100318.34;;;12.59;100.00
13348;BME280;6743;49.934;9.138;2023-05-01T07:14:15;100319.94;;;12.69;100.00
13348;BME280;6743;49.934;9.138;2023-05-01T07:16:41;100316.75;;;12.73;100.00
13348;BME280;6743;49.934;9.138;2023-05-01T07:19:07;100321.34;;;12.79;100.00
13348;BME280;6743;49.934;9.138;2023-05-01T07:21:33;100316.34;;;12.84;100.00
13348;BME280;6743;49.934;9.138;2023-05-01T07:23:59;100313.53;;;12.86;100.00
13348;BME280;6743;49.934;9.138;2023-05-01T07:26:25;100313.97;;;12.89;100.00
13348;BME280;6743;49.934;9.138;2023-05-01T07:28:51;100308.09;;;12.94;100.00
13348;BME280;6743;49.934;9.138;2023-05-01T07:31:18;100308.59;;;12.97;100.00
13348;BME280;6743;49.934;9.138;2023-05-01T07:33:44;100310.72;;;13.02;100.00
13348;BME280;6743;49.934;9.138;2023-05-01T07:36:10;100310.19;;;13.07;100.00
13348;BME280;6743;49.934;9.138;2023-05-01T07:38:36;100309.16;;;13.08;100.00
13348;BME280;6743;49.934;9.138;2023-05-01T07:41:02;100306.84;;;13.13;100.00
13348;BME280;6743;49.934;9.138;2023-05-01T07:43:28;100315.09;;;13.18;100.00
13348;BME280;6743;49.934;9.138;2023-05-01T07:45:54;100310.06;;;13.23;100.00
13348;BME280;6743;49.934;9.138;2023-05-01T07:48:22;100313.00;;;13.28;100.00
13348;BME280;6743;49.934;9.138;2023-05-01T07:50:48;100313.31;;;13.33;100.00
13348;BME280;6743;49.934;9.138;2023-05-01T07:53:15;100311.47;;;13.33;100.00
13348;BME280;6743;49.934;9.138;2023-05-01T07:55:40;100313.03;;;13.43;100.00
13348;BME280;6743;49.934;9.138;2023-05-01T07:58:06;100315.34;;;13.46;100.00
13348;BME280;6743;49.934;9.138;2023-05-01T08:00:33;100313.12;;;13.49;100.00
13348;BME280;6743;49.934;9.138;2023-05-01T08:03:00;100306.78;;;13.50;100.00
13348;BME280;6743;49.934;9.138;2023-05-01T08:05:26;100301.03;;;13.47;100.00
13348;BME280;6743;49.934;9.138;2023-05-01T08:07:52;100312.22;;;13.57;100.00
13348;BME280;6743;49.934;9.138;2023-05-01T08:10:18;100317.38;;;13.58;100.00
13348;BME280;6743;49.934;9.138;2023-05-01T08:12:44;100315.53;;;13.59;100.00
13348;BME280;6743;49.934;9.138;2023-05-01T08:15:10;100314.16;;;13.63;100.00
13348;BME280;6743;49.934;9.138;2023-05-01T08:17:36;100315.47;;;13.67;100.00
13348;BME280;6743;49.934;9.138;2023-05-01T08:20:03;100312.88;;;13.73;100.00
13348;BME280;6743;49.934;9.138;2023-05-01T08:22:30;100313.34;;;13.77;100.00
13348;BME280;6743;49.934;9.138;2023-05-01T08:24:56;100311.78;;;13.83;100.00
13348;BME280;6743;49.934;9.138;2023-05-01T08:27:22;100311.87;;;13.89;100.00
13348;BME280;6743;49.934;9.138;2023-05-01T08:29:48;100314.81;;;13.94;100.00
13348;BME280;6743;49.934;9.138;2023-05-01T08:32:16;100315.06;;;13.99;100.00
13348;BME280;6743;49.934;9.138;2023-05-01T08:34:42;100308.56;;;14.02;100.00
13348;BME280;6743;49.934;9.138;2023-05-01T08:37:08;100310.22;;;14.03;100.00
13348;BME280;6743;49.934;9.138;2023-05-01T08:39:35;100298.16;;;14.07;100.00
13348;BME280;6743;49.934;9.138;2023-05-01T08:42:01;100299.41;;;14.11;100.00
13348;BME280;6743;49.934;9.138;2023-05-01T08:44:29;100295.38;;;14.15;100.00
13348;BME280;6743;49.934;9.138;2023-05-01T08:47:03;100293.53;;;14.15;100.00
13348;BME280;6743;49.934;9.138;2023-05-01T08:49:32;100296.47;;;14.20;100.00
13348;BME280;6743;49.934;9.138;2023-05-01T08:52:00;100298.78;;;14.24;100.00
13348;BME280;6743;49.934;9.138;2023-05-01T08:54:27;100300.88;;;14.28;100.00
13348;BME280;6743;49.934;9.138;2023-05-01T08:56:55;100287.97;;;14.32;100.00
13348;BME280;6743;49.934;9.138;2023-05-01T08:59:27;100290.38;;;14.41;100.00
13348;BME280;6743;49.934;9.138;2023-05-01T09:01:55;100299.47;;;14.47;100.00
13348;BME280;6743;49.934;9.138;2023-05-01T09:04:21;100298.53;;;14.54;100.00
13348;BME280;6743;49.934;9.138;2023-05-01T09:06:47;100294.47;;;14.58;100.00
13348;BME280;6743;49.934;9.138;2023-05-01T09:09:13;100291.87;;;14.65;100.00
13348;BME280;6743;49.934;9.138;2023-05-01T09:11:43;100300.31;;;14.69;100.00
13348;BME280;6743;49.934;9.138;2023-05-01T09:14:09;100293.97;;;14.70;100.00
13348;BME280;6743;49.934;9.138;2023-05-01T09:16:35;100296.69;;;14.76;100.00
13348;BME280;6743;49.934;9.138;2023-05-01T09:19:01;100299.78;;;14.80;100.00
13348;BME280;6743;49.934;9.138;2023-05-01T09:21:28;100286.06;;;14.83;100.00
13348;BME280;6743;49.934;9.138;2023-05-01T09:23:55;100294.97;;;14.90;100.00
13348;BME280;6743;49.934;9.138;2023-05-01T09:26:21;100293.31;;;14.89;100.00
13348;BME280;6743;49.934;9.138;2023-05-01T09:28:48;100294.59;;;14.93;100.00
13348;BME280;6743;49.934;9.138;2023-05-01T09:31:24;100306.53;;;14.97;100.00
13348;BME280;6743;49.934;9.138;2023-05-01T09:33:54;100294.44;;;15.01;100.00
13348;BME280;6743;49.934;9.138;2023-05-01T09:36:21;100287.84;;;14.97;100.00
13348;BME280;6743;49.934;9.138;2023-05-01T09:38:48;100291.59;;;15.03;100.00
13348;BME280;6743;49.934;9.138;2023-05-01T09:41:14;100293.25;;;15.04;100.00
13348;BME280;6743;49.934;9.138;2023-05-01T09:43:40;100296.56;;;15.06;100.00
13348;BME280;6743;49.934;9.138;2023-05-01T09:46:08;100296.16;;;15.09;100.00
13348;BME280;6743;49.934;9.138;2023-05-01T09:48:36;100293.09;;;15.12;100.00
13348;BME280;6743;49.934;9.138;2023-05-01T09:51:27;100298.28;;;15.13;100.00
13348;BME280;6743;49.934;9.138;2023-05-01T09:53:54;100300.94;;;15.13;100.00
13348;BME280;6743;49.934;9.138;2023-05-01T09:56:20;100295.38;;;15.15;100.00
13348;BME280;6743;49.934;9.138;2023-05-01T09:58:47;100294.37;;;15.16;100.00
13348;BME280;6743;49.934;9.138;2023-05-01T10:01:13;100306.06;;;15.15;100.00
13348;BME280;6743;49.934;9.138;2023-05-01T10:03:42;100292.28;;;15.11;100.00
13348;BME280;6743;49.934;9.138;2023-05-01T10:06:08;100295.38;;;15.15;100.00
13348;BME280;6743;49.934;9.138;2023-05-01T10:08:45;100288.19;;;15.15;100.00
13348;BME280;6743;49.934;9.138;2023-05-01T10:11:11;100297.84;;;15.16;100.00
13348;BME280;6743;49.934;9.138;2023-05-01T10:13:37;100292.97;;;15.20;100.00
13348;BME280;6743;49.934;9.138;2023-05-01T10:16:04;100285.78;;;15.20;100.00
13348;BME280;6743;49.934;9.138;2023-05-01T10:18:32;100286.41;;;15.22;100.00
13348;BME280;6743;49.934;9.138;2023-05-01T10:20:59;100290.97;;;15.28;100.00
13348;BME280;6743;49.934;9.138;2023-05-01T10:23:25;100293.63;;;15.28;100.00
13348;BME280;6743;49.934;9.138;2023-05-01T10:25:51;100291.19;;;15.27;100.00
13348;BME280;6743;49.934;9.138;2023-05-01T10:28:19;100287.28;;;15.29;100.00
13348;BME280;6743;49.934;9.138;2023-05-01T10:30:45;100294.28;;;15.30;100.00
13348;BME280;6743;49.934;9.138;2023-05-01T10:33:12;100296.31;;;15.28;100.00
13348;BME280;6743;49.934;9.138;2023-05-01T10:35:39;100296.38;;;15.35;100.00
13348;BME280;6743;49.934;9.138;2023-05-01T10:38:11;100295.97;;;15.38;100.00
13348;BME280;6743;49.934;9.138;2023-05-01T10:40:48;100294.97;;;15.39;100.00
13348;BME280;6743;49.934;9.138;2023-05-01T10:43:16;100300.12;;;15.41;100.00
13348;BME280;6743;49.934;9.138;2023-05-01T10:45:43;100301.37;;;15.45;100.00
13348;BME280;6743;49.934;9.138;2023-05-01T10:48:09;100295.84;;;15.46;100.00
13348;BME280;6743;49.934;9.138;2023-05-01T10:51:07;100291.31;;;15.47;100.00
13348;BME280;6743;49.934;9.138;2023-05-01T10:53:35;100290.50;;;15.46;100.00
13348;BME280;6743;49.934;9.138;2023-05-01T10:56:02;100285.78;;;15.48;100.00
13348;BME280;6743;49.934;9.138;2023-05-01T10:59:03;100283.72;;;15.50;100.00
13348;BME280;6743;49.934;9.138;2023-05-01T11:01:31;100284.94;;;15.48;100.00
13348;BME280;6743;49.934;9.138;2023-05-01T11:03:58;100288.19;;;15.43;100.00
13348;BME280;6743;49.934;9.138;2023-05-01T11:06:25;100289.22;;;15.42;100.00
13348;BME280;6743;49.934;9.138;2023-05-01T11:08:52;100288.59;;;15.40;100.00
13348;BME280;6743;49.934;9.138;2023-05-01T11:11:46;100291.47;;;15.38;100.00
13348;BME280;6743;49.934;9.138;2023-05-01T11:14:15;100296.38;;;15.35;100.00
13348;BME280;6743;49.934;9.138;2023-05-01T11:16:44;100288.94;;;15.30;100.00
13348;BME280;6743;49.934;9.138;2023-05-01T11:19:45;100292.66;;;15.36;100.00
13348;BME280;6743;49.934;9.138;2023-05-01T11:22:14;100287.13;;;15.37;100.00
13348;BME280;6743;49.934;9.138;2023-05-01T11:24:42;100289.44;;;15.41;100.00
13348;BME280;6743;49.934;9.138;2023-05-01T11:27:12;100277.94;;;15.47;100.00
13348;BME280;6743;49.934;9.138;2023-05-01T11:29:38;100277.19;;;15.53;100.00
13348;BME280;6743;49.934;9.138;2023-05-01T11:32:06;100271.16;;;15.51;100.00
13348;BME280;6743;49.934;9.138;2023-05-01T11:34:34;100278.88;;;15.60;100.00
13348;BME280;6743;49.934;9.138;2023-05-01T11:37:02;100284.44;;;15.59;100.00
13348;BME280;6743;49.934;9.138;2023-05-01T11:39:28;100285.66;;;15.63;100.00
13348;BME280;6743;49.934;9.138;2023-05-01T11:42:05;100287.13;;;15.65;100.00
13348;BME280;6743;49.934;9.138;2023-05-01T11:44:31;100284.69;;;15.70;100.00
13348;BME280;6743;49.934;9.138;2023-05-01T11:46:57;100291.13;;;15.76;100.00
13348;BME280;6743;49.934;9.138;2023-05-01T11:49:26;100284.97;;;15.82;100.00
13348;BME280;6743;49.934;9.138;2023-05-01T11:51:55;100279.03;;;15.87;100.00
13348;BME280;6743;49.934;9.138;2023-05-01T11:54:21;100271.47;;;15.97;100.00
13348;BME280;6743;49.934;9.138;2023-05-01T11:56:56;100278.28;;;16.06;100.00
13348;BME280;6743;49.934;9.138;2023-05-01T11:59:23;100275.03;;;16.17;100.00
13348;BME280;6743;49.934;9.138;2023-05-01T12:01:50;100263.72;;;16.22;100.00
13348;BME280;6743;49.934;9.138;2023-05-01T12:04:23;100260.69;;;16.31;100.00
13348;BME280;6743;49.934;9.138;2023-05-01T12:06:49;100258.22;;;16.36;100.00
13348;BME280;6743;49.934;9.138;2023-05-01T12:09:17;100260.28;;;16.41;100.00
13348;BME280;6743;49.934;9.138;2023-05-01T12:11:44;100260.72;;;16.44;100.00
13348;BME280;6743;49.934;9.138;2023-05-01T12:14:11;100266.28;;;16.49;100.00
13348;BME280;6743;49.934;9.138;2023-05-01T12:16:39;100255.97;;;16.53;100.00
13348;BME280;6743;49.934;9.138;2023-05-01T12:19:07;100253.97;;;16.62;100.00
13348;BME280;6743;49.934;9.138;2023-05-01T12:21:33;100249.88;;;16.72;100.00
13348;BME280;6743;49.934;9.138;2023-05-01T12:24:08;100258.09;;;16.84;100.00
13348;BME280;6743;49.934;9.138;2023-05-01T12:26:34;100256.88;;;16.93;100.00
13348;BME280;6743;49.934;9.138;2023-05-01T12:29:01;100249.25;;;16.97;100.00
13348;BME280;6743;49.934;9.138;2023-05-01T12:31:28;100248.62;;;17.01;100.00
13348;BME280;6743;49.934;9.138;2023-05-01T12:33:56;100246.75;;;17.08;100.00
13348;BME280;6743;49.934;9.138;2023-05-01T12:36:24;100253.78;;;17.16;100.00
13348;BME280;6743;49.934;9.138;2023-05-01T12:38:59;100250.47;;;17.20;100.00
13348;BME280;6743;49.934;9.138;2023-05-01T12:41:36;100256.69;;;17.21;100.00
13348;BME280;6743;49.934;9.138;2023-05-01T12:44:05;100249.22;;;17.23;100.00
13348;BME280;6743;49.934;9.138;2023-05-01T12:46:39;100243.87;;;17.16;100.00
13348;BME280;6743;49.934;9.138;2023-05-01T12:49:06;100248.19;;;17.24;100.00
13348;BME280;6743;49.934;9.138;2023-05-01T12:51:32;100253.56;;;17.30;100.00
13348;BME280;6743;49.934;9.138;2023-05-01T12:53:58;100251.69;;;17.38;100.00
13348;BME280;6743;49.934;9.138;2023-05-01T12:56:24;100250.44;;;17.47;100.00